Time;durP1;ratioP1;P1;durP2;ratioP2;P2;SDS_P1;SDS_P2;PMS_P1;PMS_P2;Temp;Humidity;BMP_temperature;BMP_pressure;BME280_temperature;BME280_humidity;BME280_pressure;Samples;Min_cycle;Max_cycle;Signal;HPM_P1;HPM_P2
2022/08/10 00:01:24;;;;;;;7.40;5.60;;;16.80;99.90;;;;;;5154893;27;20049;-71
2022/08/10 00:03:50;;;;;;;12.20;5.60;;;16.70;99.90;;;;;;5154326;27;20047;-71
2022/08/10 00:06:16;;;;;;;6.70;5.57;;;16.70;99.90;;;;;;5136432;27;20093;-71
2022/08/10 00:08:42;;;;;;;12.60;5.80;;;16.60;99.90;;;;;;5154766;27;20114;-71
2022/08/10 00:11:08;;;;;;;8.43;5.53;;;16.60;99.90;;;;;;5154580;27;20049;-71
2022/08/10 00:13:34;;;;;;;8.17;5.40;;;16.60;99.90;;;;;;5154693;27;20047;-71
2022/08/10 00:16:00;;;;;;;6.50;5.80;;;16.60;99.90;;;;;;5154492;27;20126;-71
2022/08/10 00:18:26;;;;;;;9.80;6.00;;;16.60;99.90;;;;;;5154357;27;20149;-70
2022/08/10 00:20:53;;;;;;;7.47;5.80;;;16.50;99.90;;;;;;5154985;27;20062;-70
2022/08/10 00:23:19;;;;;;;9.20;6.53;;;16.50;99.90;;;;;;5154692;27;20107;-71
2022/08/10 00:25:45;;;;;;;8.87;6.30;;;16.50;99.90;;;;;;5154603;27;20042;-71
2022/08/10 00:28:11;;;;;;;7.50;5.40;;;16.50;99.90;;;;;;5154398;27;20042;-71
2022/08/10 00:30:37;;;;;;;7.17;5.30;;;16.50;99.90;;;;;;5154688;27;20425;-71
2022/08/10 00:33:03;;;;;;;8.33;6.10;;;16.40;99.90;;;;;;5136131;27;20039;-71
2022/08/10 00:35:28;;;;;;;6.87;5.63;;;16.50;99.90;;;;;;5154506;27;20068;-71
2022/08/10 00:37:54;;;;;;;6.63;5.30;;;16.50;99.90;;;;;;5154501;27;20042;-71
2022/08/10 00:40:20;;;;;;;8.70;6.07;;;16.50;99.90;;;;;;5154271;27;20039;-71
2022/08/10 00:42:45;;;;;;;9.00;6.73;;;16.40;99.90;;;;;;5154412;27;20049;-70
2022/08/10 00:45:11;;;;;;;8.43;5.93;;;16.40;99.90;;;;;;5154191;27;20038;-71
2022/08/10 00:47:37;;;;;;;8.47;6.20;;;16.40;99.90;;;;;;5154543;27;20492;-71
2022/08/10 00:50:05;;;;;;;10.87;7.20;;;16.50;99.90;;;;;;5154498;27;20126;-71
2022/08/10 00:52:33;;;;;;;7.77;6.33;;;16.40;99.90;;;;;;5154449;27;20046;-71
2022/08/10 00:55:01;;;;;;;8.30;5.80;;;16.40;99.90;;;;;;5154040;27;20041;-71
2022/08/10 00:57:28;;;;;;;7.77;5.87;;;16.40;99.90;;;;;;5154547;27;20047;-71
2022/08/10 00:59:54;;;;;;;8.67;6.00;;;16.40;99.90;;;;;;5154347;27;20118;-71
2022/08/10 01:02:20;;;;;;;10.30;6.80;;;16.40;99.90;;;;;;5153995;27;20051;-71
2022/08/10 01:04:46;;;;;;;7.17;5.83;;;16.40;99.90;;;;;;5154408;27;20088;-71
2022/08/10 01:07:42;;;;;;;10.20;6.33;;;16.40;99.90;;;;;;5154030;27;20276;-71
2022/08/10 01:10:37;;;;;;;9.03;7.30;;;16.40;99.90;;;;;;5153943;27;20081;-71
2022/08/10 01:13:12;;;;;;;7.85;6.05;;;16.30;99.90;;;;;;5154083;27;20042;-71
2022/08/10 01:15:50;;;;;;;9.10;6.95;;;16.40;99.90;;;;;;5156740;27;20482;-71
2022/08/10 01:18:27;;;;;;;10.43;6.23;;;16.40;99.90;;;;;;5157918;27;20051;-71
2022/08/10 01:21:11;;;;;;;8.33;6.57;;;16.30;99.90;;;;;;5157666;27;20081;-71
2022/08/10 01:23:58;;;;;;;11.10;6.67;;;16.30;99.90;;;;;;5158318;27;20054;-71
2022/08/10 01:27:11;;;;;;;9.27;6.80;;;16.20;99.90;;;;;;5157690;27;20133;-71
2022/08/10 01:29:55;;;;;;;7.93;6.50;;;16.30;99.90;;;;;;5135288;27;20057;-71
2022/08/10 01:32:50;;;;;;;9.52;7.55;;;16.20;99.90;;;;;;5157515;27;20050;-71
2022/08/10 01:35:25;;;;;;;10.30;7.37;;;16.20;99.90;;;;;;5119538;27;20065;-71
2022/08/10 01:38:13;;;;;;;9.27;7.67;;;16.20;99.90;;;;;;5157781;27;20041;-71
2022/08/10 01:41:03;;;;;;;10.13;7.50;;;16.20;99.90;;;;;;5157682;27;20462;-71
2022/08/10 01:43:32;;;;;;;10.80;7.47;;;16.20;99.90;;;;;;5137988;27;20367;-71
2022/08/10 01:46:02;;;;;;;10.07;7.30;;;16.10;99.90;;;;;;5157594;27;20043;-70
2022/08/10 01:48:40;;;;;;;10.17;7.53;;;16.10;99.90;;;;;;5157506;27;20062;-71
2022/08/10 01:51:15;;;;;;;12.60;8.00;;;16.10;99.90;;;;;;5157187;27;20754;-71
2022/08/10 01:53:50;;;;;;;12.40;8.50;;;16.10;99.90;;;;;;5157366;27;20039;-71
2022/08/10 01:56:18;;;;;;;9.47;8.13;;;16.00;99.90;;;;;;5157191;27;20129;-71
2022/08/10 01:58:47;;;;;;;13.80;9.63;;;16.00;99.90;;;;;;5157277;27;20272;-71
2022/08/10 02:01:17;;;;;;;11.40;8.20;;;16.00;99.90;;;;;;5156941;27;20046;-71
2022/08/10 02:03:47;;;;;;;11.87;8.73;;;16.00;99.90;;;;;;5157336;27;20043;-71
2022/08/10 02:06:13;;;;;;;11.93;8.90;;;16.00;99.90;;;;;;5157008;27;20467;-71
2022/08/10 02:08:41;;;;;;;11.60;9.10;;;16.00;99.90;;;;;;5138870;27;20280;-71
2022/08/10 02:11:09;;;;;;;12.97;8.70;;;15.90;99.90;;;;;;5157005;27;20043;-72
2022/08/10 02:13:36;;;;;;;11.47;8.53;;;15.90;99.90;;;;;;5156640;27;20830;-71
2022/08/10 02:16:03;;;;;;;10.93;9.27;;;15.90;99.90;;;;;;5156978;27;20272;-71
2022/08/10 02:18:31;;;;;;;13.00;9.03;;;15.90;99.90;;;;;;5138146;27;20284;-70
2022/08/10 02:21:03;;;;;;;10.90;9.50;;;15.90;99.90;;;;;;5156826;27;20304;-70
2022/08/10 02:23:31;;;;;;;12.63;9.03;;;15.90;99.90;;;;;;5156314;27;21152;-70
2022/08/10 02:26:00;;;;;;;11.17;9.40;;;15.80;99.90;;;;;;5137962;27;20385;-70
2022/08/10 02:28:29;;;;;;;11.63;9.70;;;15.80;99.90;;;;;;5156774;27;20049;-71
2022/08/10 02:30:58;;;;;;;15.30;9.53;;;15.80;99.90;;;;;;5156356;27;20771;-71
2022/08/10 02:33:26;;;;;;;11.43;10.20;;;15.80;99.90;;;;;;5156290;27;20288;-71
2022/08/10 02:35:53;;;;;;;11.90;10.27;;;15.80;99.90;;;;;;5156643;27;20038;-71
2022/08/10 02:38:29;;;;;;;12.10;10.00;;;15.80;99.90;;;;;;5156255;27;20799;-71
2022/08/10 02:41:00;;;;;;;13.63;9.60;;;15.80;99.90;;;;;;5138432;27;20363;-71
2022/08/10 02:43:35;;;;;;;12.20;10.90;;;15.80;99.90;;;;;;5138019;27;20601;-71
2022/08/10 02:46:11;;;;;;;14.10;10.70;;;15.80;99.90;;;;;;5156423;27;20047;-71
2022/08/10 02:48:44;;;;;;;12.10;10.37;;;15.80;99.90;;;;;;5156437;27;20748;-71
2022/08/10 02:51:19;;;;;;;12.10;10.10;;;15.70;99.90;;;;;;5138174;27;20288;-71
2022/08/10 02:53:49;;;;;;;12.82;11.20;;;15.80;99.90;;;;;;5156205;27;20296;-71
2022/08/10 02:56:24;;;;;;;11.80;10.57;;;15.70;99.90;;;;;;5156088;27;20090;-71
2022/08/10 02:58:57;;;;;;;12.93;10.97;;;15.80;99.90;;;;;;5138252;27;20288;-71
2022/08/10 03:01:30;;;;;;;16.53;10.93;;;15.70;99.90;;;;;;5155808;27;20482;-71
2022/08/10 03:04:00;;;;;;;15.07;10.30;;;15.70;99.90;;;;;;5156356;27;20631;-71
2022/08/10 03:06:34;;;;;;;14.13;11.70;;;15.70;99.90;;;;;;5155823;27;20458;-71
2022/08/10 03:09:02;;;;;;;12.13;10.90;;;15.70;99.90;;;;;;5155986;27;20275;-71
2022/08/10 03:11:31;;;;;;;12.60;10.33;;;15.70;99.90;;;;;;5155912;27;20275;-71
2022/08/10 03:13:58;;;;;;;13.63;10.77;;;15.60;99.90;;;;;;5155861;27;20296;-71
2022/08/10 03:16:26;;;;;;;14.07;10.57;;;15.60;99.90;;;;;;5155433;27;20280;-71
2022/08/10 03:18:55;;;;;;;14.90;10.97;;;15.60;99.90;;;;;;5155775;27;20736;-72
2022/08/10 03:21:21;;;;;;;14.47;11.30;;;15.60;99.90;;;;;;5155482;27;20627;-72
2022/08/10 03:23:48;;;;;;;15.23;11.53;;;15.60;99.90;;;;;;5155598;27;20284;-71
2022/08/10 03:26:15;;;;;;;13.20;11.50;;;15.70;99.90;;;;;;5155592;27;20295;-71
2022/08/10 03:28:42;;;;;;;16.20;11.30;;;15.60;99.90;;;;;;5155314;27;20295;-71
2022/08/10 03:31:08;;;;;;;14.07;11.60;;;15.70;99.90;;;;;;5155434;27;20272;-71
2022/08/10 03:33:38;;;;;;;15.37;12.00;;;15.60;99.90;;;;;;5155127;27;20283;-71
2022/08/10 03:36:05;;;;;;;14.87;13.23;;;15.60;99.90;;;;;;5137105;27;20402;-71
2022/08/10 03:38:32;;;;;;;17.60;12.87;;;15.60;99.90;;;;;;5154280;27;20280;-71
2022/08/10 03:41:02;;;;;;;13.37;11.10;;;15.60;99.90;;;;;;5155423;27;20643;-71
2022/08/10 03:43:28;;;;;;;14.87;12.00;;;15.60;99.90;;;;;;5155050;27;20355;-71
2022/08/10 03:45:58;;;;;;;15.47;11.90;;;15.60;99.90;;;;;;5155189;27;20271;-71
2022/08/10 03:48:26;;;;;;;13.43;11.60;;;15.60;99.90;;;;;;5154921;27;20284;-71
2022/08/10 03:50:54;;;;;;;15.77;13.10;;;15.60;99.90;;;;;;5136851;27;20280;-71
2022/08/10 03:53:20;;;;;;;17.77;11.30;;;15.60;99.90;;;;;;5155316;27;20283;-72
2022/08/10 03:55:47;;;;;;;14.30;12.73;;;15.60;99.90;;;;;;5155022;27;20283;-71
2022/08/10 03:58:13;;;;;;;16.70;12.93;;;15.60;99.90;;;;;;5136838;27;20382;-71
2022/08/10 04:00:40;;;;;;;17.13;12.90;;;15.60;99.90;;;;;;5136257;27;20284;-71
2022/08/10 04:03:06;;;;;;;14.63;12.63;;;15.60;99.90;;;;;;5155001;27;20284;-71
2022/08/10 04:05:33;;;;;;;16.73;13.30;;;15.60;99.90;;;;;;5154666;27;20276;-71
2022/08/10 04:07:59;;;;;;;17.43;13.83;;;15.60;99.90;;;;;;5154858;27;20790;-71
2022/08/10 04:10:25;;;;;;;18.93;13.13;;;15.60;99.90;;;;;;5154668;27;20276;-71
2022/08/10 04:12:51;;;;;;;14.93;11.80;;;15.60;99.90;;;;;;5154799;27;20279;-71
2022/08/10 04:15:17;;;;;;;13.67;12.27;;;15.60;99.90;;;;;;5154700;27;20390;-71
2022/08/10 04:17:43;;;;;;;13.73;11.93;;;15.60;99.90;;;;;;5154446;27;20327;-71
2022/08/10 04:20:23;;;;;;;15.40;12.13;;;15.60;99.90;;;;;;5154165;27;20082;-71
2022/08/10 04:22:51;;;;;;;15.60;12.80;;;15.60;99.90;;;;;;5154884;27;20046;-71
2022/08/10 04:25:19;;;;;;;15.27;11.33;;;15.60;99.90;;;;;;5154634;27;20268;-70
2022/08/10 04:27:46;;;;;;;14.13;12.23;;;15.60;99.90;;;;;;5154461;27;20287;-71
2022/08/10 04:30:12;;;;;;;16.93;12.10;;;15.60;99.90;;;;;;5154591;27;20303;-71
2022/08/10 04:32:40;;;;;;;14.77;11.87;;;15.60;99.90;;;;;;5154378;27;20743;-71
2022/08/10 04:35:09;;;;;;;15.60;11.47;;;15.60;99.90;;;;;;5154449;27;20525;-71
2022/08/10 04:37:36;;;;;;;13.57;12.07;;;15.60;99.90;;;;;;5154219;27;20375;-71
2022/08/10 04:40:03;;;;;;;14.10;11.73;;;15.60;99.90;;;;;;5136196;27;20046;-71
2022/08/10 04:42:29;;;;;;;14.37;12.40;;;15.60;99.90;;;;;;5154174;27;20756;-71
2022/08/10 04:44:56;;;;;;;15.00;12.87;;;15.70;99.90;;;;;;5154456;27;20384;-71
2022/08/10 04:47:21;;;;;;;15.57;13.10;;;15.60;99.90;;;;;;5154525;27;20369;-71
2022/08/10 04:49:47;;;;;;;14.53;11.80;;;15.70;99.90;;;;;;5156855;27;20364;-71
2022/08/10 04:52:13;;;;;;;14.87;11.77;;;15.60;99.90;;;;;;5158614;27;20497;-71
2022/08/10 04:54:38;;;;;;;14.53;12.23;;;15.70;99.90;;;;;;5158118;27;20382;-71
2022/08/10 04:57:04;;;;;;;16.80;12.60;;;15.70;99.90;;;;;;5158742;27;20042;-71
2022/08/10 04:59:30;;;;;;;14.27;12.03;;;15.70;99.90;;;;;;5158205;27;20495;-71
2022/08/10 05:01:55;;;;;;;14.00;11.83;;;15.70;99.90;;;;;;5158653;27;20440;-71
2022/08/10 05:04:21;;;;;;;15.57;12.23;;;15.70;99.90;;;;;;5158357;27;20049;-71
2022/08/10 05:06:47;;;;;;;14.27;11.10;;;15.70;99.90;;;;;;5158353;27;20072;-71
2022/08/10 05:09:13;;;;;;;12.73;11.23;;;15.80;99.90;;;;;;5140071;27;20047;-71
2022/08/10 05:11:38;;;;;;;13.20;10.87;;;15.80;99.90;;;;;;5157987;27;20486;-71
2022/08/10 05:14:04;;;;;;;13.77;10.13;;;15.90;99.90;;;;;;5158109;27;20039;-71
2022/08/10 05:16:30;;;;;;;11.93;10.60;;;15.90;99.90;;;;;;5158093;27;20049;-71
2022/08/10 05:18:55;;;;;;;13.33;11.93;;;16.00;99.90;;;;;;5157865;27;20082;-71
2022/08/10 05:21:21;;;;;;;13.50;10.40;;;16.10;99.90;;;;;;5156805;27;20047;-71
2022/08/10 05:23:47;;;;;;;15.33;11.70;;;16.10;99.90;;;;;;5145159;27;20043;-71
2022/08/10 05:26:12;;;;;;;14.67;10.57;;;16.20;99.90;;;;;;5137406;27;20131;-71
2022/08/10 05:28:38;;;;;;;13.00;11.17;;;16.30;99.90;;;;;;5136843;27;20390;-71
2022/08/10 05:31:04;;;;;;;11.90;10.33;;;16.40;99.90;;;;;;5137391;27;20043;-71
2022/08/10 05:33:29;;;;;;;13.10;11.03;;;16.50;99.90;;;;;;5136716;27;20054;-71
2022/08/10 05:35:56;;;;;;;12.60;10.20;;;16.60;99.90;;;;;;5137095;27;20046;-71
2022/08/10 05:38:24;;;;;;;12.50;10.07;;;16.70;99.90;;;;;;5137113;27;20051;-76
2022/08/10 05:40:50;;;;;;;13.17;10.87;;;16.70;99.90;;;;;;5136753;27;20054;-72
2022/08/10 05:43:18;;;;;;;12.50;9.87;;;16.80;99.90;;;;;;5136847;27;20283;-72
2022/08/10 05:45:45;;;;;;;11.77;10.20;;;16.90;99.90;;;;;;5136624;27;20081;-72
2022/08/10 05:48:11;;;;;;;11.60;9.13;;;17.10;99.90;;;;;;5136820;27;20406;-72
2022/08/10 05:50:36;;;;;;;10.67;9.40;;;17.30;99.90;;;;;;5118189;27;20039;-73
2022/08/10 05:53:02;;;;;;;11.97;9.13;;;17.50;99.90;;;;;;5101731;27;20130;-72
2022/08/10 05:55:29;;;;;;;9.90;8.60;;;17.80;99.90;;;;;;5136817;27;20043;-72
2022/08/10 05:57:56;;;;;;;11.40;8.23;;;18.70;99.90;;;;;;5136309;27;20854;-73
2022/08/10 06:00:25;;;;;;;11.43;7.73;;;19.70;99.90;;;;;;5135893;27;20418;-73
2022/08/10 06:02:59;;;;;;;9.93;8.10;;;20.70;99.90;;;;;;5136360;27;20055;-72
2022/08/10 06:05:27;;;;;;;8.37;6.73;;;21.40;99.90;;;;;;5136693;27;20424;-73
2022/08/10 06:07:58;;;;;;;9.27;7.13;;;22.10;99.90;;;;;;5118087;27;20442;-73
2022/08/10 06:10:24;;;;;;;10.53;7.57;;;22.50;99.90;;;;;;5136685;27;20047;-73
2022/08/10 06:15:38;;;;;;;8.23;6.00;;;23.40;99.90;;;;;;5136451;27;20051;-72
2022/08/10 06:18:05;;;;;;;8.27;6.50;;;24.00;99.90;;;;;;5136379;27;20043;-72
2022/08/10 06:20:31;;;;;;;8.77;6.23;;;24.40;99.90;;;;;;5135856;27;20066;-72
2022/08/10 06:23:02;;;;;;;8.60;6.07;;;25.20;99.90;;;;;;5135836;27;20460;-73
2022/08/10 06:25:30;;;;;;;9.83;5.87;;;25.80;99.90;;;;;;5136255;27;20039;-72
2022/08/10 06:27:57;;;;;;;8.87;5.70;;;26.10;99.90;;;;;;5135687;27;20131;-73
2022/08/10 06:30:25;;;;;;;10.03;5.00;;;26.30;99.20;;;;;;5135634;27;20499;-73
2022/08/10 06:32:55;;;;;;;9.57;5.33;;;26.40;94.80;;;;;;5135712;27;20050;-72
2022/08/10 06:35:24;;;;;;;7.83;5.20;;;26.30;93.60;;;;;;5135812;27;20042;-72
2022/08/10 06:37:52;;;;;;;8.27;4.83;;;26.30;95.20;;;;;;5135579;27;20043;-73
2022/08/10 06:40:19;;;;;;;7.33;4.60;;;26.50;94.80;;;;;;5135426;27;20552;-72
2022/08/10 06:42:48;;;;;;;8.33;4.63;;;26.90;93.60;;;;;;5135488;27;20051;-73
2022/08/10 06:45:19;;;;;;;7.30;4.30;;;;;;;;;;5117426;27;20064;-73
2022/08/10 06:47:52;;;;;;;6.70;4.00;;;27.50;87.40;;;;;;5135367;27;20043;-73
2022/08/10 06:50:22;;;;;;;7.23;4.50;;;27.70;87.60;;;;;;5135320;27;20509;-74
2022/08/10 06:52:50;;;;;;;5.57;3.60;;;28.20;79.80;;;;;;5135371;27;20043;-72
2022/08/10 06:55:17;;;;;;;6.10;4.10;;;28.50;80.60;;;;;;5135489;27;20043;-72
2022/08/10 06:57:43;;;;;;;6.70;3.70;;;28.80;76.70;;;;;;5135460;27;20076;-75
2022/08/10 07:00:10;;;;;;;9.77;3.83;;;;;;;;;;5135405;27;20047;-71
2022/08/10 07:02:47;;;;;;;6.68;3.97;;;29.70;98.00;;;;;;5135332;27;20051;-76
2022/08/10 07:05:19;;;;;;;7.00;3.80;;;29.80;64.80;;;;;;5135389;27;20394;-72
2022/08/10 07:07:46;;;;;;;8.35;3.50;;;29.70;65.00;;;;;;5134892;27;20500;-73
2022/08/10 07:10:17;;;;;;;6.03;3.47;;;29.70;64.80;;;;;;5116748;27;20055;-70
2022/08/10 07:12:45;;;;;;;5.20;3.15;;;29.70;63.70;;;;;;5135177;27;20046;-70
2022/08/10 07:15:12;;;;;;;6.18;3.35;;;30.10;62.50;;;;;;5134996;27;20037;-72
2022/08/10 07:17:39;;;;;;;5.95;3.10;;;30.20;59.90;;;;;;5142673;27;20436;-71
2022/08/10 07:20:08;;;;;;;8.48;3.08;;;30.30;59.80;;;;;;5124845;27;20043;-71
2022/08/10 07:22:35;;;;;;;5.72;3.40;;;;;;;;;;5144746;27;20039;-72
2022/08/10 07:25:02;;;;;;;7.88;3.30;;;31.20;58.30;;;;;;5148694;27;20188;-72
2022/08/10 07:27:28;;;;;;;5.35;3.13;;;31.80;59.90;;;;;;5155301;27;20545;-72
2022/08/10 07:29:56;;;;;;;5.40;3.25;;;31.90;57.70;;;;;;5155480;27;20464;-71
2022/08/10 07:32:23;;;;;;;8.38;3.75;;;32.00;57.80;;;;;;5155707;27;20104;-71
2022/08/10 07:34:52;;;;;;;6.28;3.20;;;32.00;52.80;;;;;;5136832;27;20119;-71
2022/08/10 07:37:20;;;;;;;5.57;2.60;;;31.90;52.50;;;;;;5137176;27;20043;-71
2022/08/10 07:39:48;;;;;;;5.75;3.10;;;;;;;;;;5155232;27;20045;-72
2022/08/10 07:42:18;;;;;;;8.50;3.35;;;32.00;60.40;;;;;;5154731;27;20485;-72
2022/08/10 07:44:45;;;;;;;5.30;3.17;;;31.70;51.60;;;;;;5155326;27;20117;-71
2022/08/10 07:47:35;;;;;;;5.22;2.85;;;31.80;51.90;;;;;;5154986;27;20078;-75
2022/08/10 07:50:06;;;;;;;4.82;3.17;;;31.90;51.90;;;;;;5153979;27;20097;-71
2022/08/10 07:52:33;;;;;;;4.97;2.70;;;32.40;51.70;;;;;;5155415;27;20050;-70
2022/08/10 07:55:01;;;;;;;5.18;2.85;;;32.20;50.40;;;;;;5154814;27;20125;-71
2022/08/10 07:57:30;;;;;;;5.68;3.30;;;32.20;50.50;;;;;;5154731;27;20474;-70
2022/08/10 08:00:03;;;;;;;5.85;2.75;;;32.30;50.40;;;;;;5154810;27;20051;-71
2022/08/10 08:02:56;;;;;;;6.70;2.83;;;32.50;50.30;;;;;;5155370;27;20107;-71
2022/08/10 08:05:25;;;;;;;6.10;3.23;;;32.40;49.90;;;;;;5155008;27;20038;-71
2022/08/10 08:07:52;;;;;;;5.93;2.65;;;32.30;49.60;;;;;;5136655;27;20390;-71
2022/08/10 08:10:22;;;;;;;4.72;2.67;;;32.40;49.30;;;;;;5154969;27;20606;-70
2022/08/10 08:12:49;;;;;;;5.70;2.45;;;31.90;49.40;;;;;;5154857;27;20055;-71
2022/08/10 08:15:19;;;;;;;6.63;3.15;;;31.90;50.40;;;;;;5154570;27;20046;-71
2022/08/10 08:17:47;;;;;;;6.10;2.42;;;31.40;50.50;;;;;;5136602;27;20407;-70
2022/08/10 08:20:16;;;;;;;5.72;2.90;;;31.20;52.60;;;;;;5154143;27;20050;-71
2022/08/10 08:22:44;;;;;;;7.35;2.95;;;30.30;52.30;;;;;;5154661;27;20486;-71
2022/08/10 08:25:11;;;;;;;6.60;2.38;;;29.40;52.70;;;;;;5153983;27;20046;-71
2022/08/10 08:27:39;;;;;;;5.88;2.85;;;28.40;54.40;;;;;;5154751;27;20050;-70
2022/08/10 08:30:09;;;;;;;4.10;2.55;;;27.60;56.50;;;;;;5154392;27;20039;-70
2022/08/10 08:32:37;;;;;;;5.03;2.22;;;27.20;57.90;;;;;;5154679;27;20046;-71
2022/08/10 08:35:09;;;;;;;4.75;2.70;;;26.80;59.80;;;;;;5154375;27;20367;-71
2022/08/10 08:37:38;;;;;;;6.00;2.75;;;26.60;62.40;;;;;;5154839;27;20050;-71
2022/08/10 08:40:06;;;;;;;7.57;3.70;;;26.30;64.70;;;;;;5135760;27;20050;-71
2022/08/10 08:42:53;;;;;;;6.40;3.22;;;26.10;65.20;;;;;;5153876;27;20095;-71
2022/08/10 08:45:38;;;;;;;4.15;2.65;;;25.90;67.00;;;;;;5153977;27;20539;-71
2022/08/10 08:48:24;;;;;;;4.70;2.55;;;25.80;70.10;;;;;;5154240;27;20062;-71
2022/08/10 08:51:17;;;;;;;6.28;2.70;;;25.70;71.60;;;;;;5154162;27;20479;-73
2022/08/10 08:54:20;;;;;;;6.18;3.00;;;25.70;76.70;;;;;;5154616;27;20042;-73
2022/08/10 08:56:58;;;;;;;5.70;2.45;;;25.60;75.30;;;;;;5154412;27;20051;-70
2022/08/10 08:59:53;;;;;;;9.40;3.00;;;25.40;79.20;;;;;;5154214;27;20051;-70
2022/08/10 09:02:47;;;;;;;5.82;2.22;;;25.30;79.60;;;;;;5154126;27;20042;-71
2022/08/10 09:05:49;;;;;;;6.20;2.80;;;25.20;80.80;;;;;;5135746;27;20054;-71
2022/08/10 09:08:49;;;;;;;6.43;2.20;;;25.20;82.60;;;;;;5154000;27;20047;-71
2022/08/10 09:11:18;;;;;;;7.33;2.77;;;25.30;84.20;;;;;;5153927;27;20084;-71
2022/08/10 09:13:49;;;;;;;5.33;2.10;;;25.30;82.10;;;;;;5154076;27;20398;-71
2022/08/10 09:16:57;;;;;;;5.00;2.43;;;25.20;83.20;;;;;;5153961;27;20127;-71
2022/08/10 09:19:53;;;;;;;5.53;2.50;;;25.20;84.90;;;;;;5062061;27;20164;-70
2022/08/10 09:22:32;;;;;;;7.13;2.77;;;25.10;86.30;;;;;;5153951;27;20057;-71
2022/08/10 09:25:21;;;;;;;8.93;2.50;;;25.10;86.90;;;;;;5153839;27;20126;-70
2022/08/10 09:27:54;;;;;;;5.30;2.07;;;25.10;87.90;;;;;;5154393;27;20035;-70
2022/08/10 09:30:48;;;;;;;6.00;2.90;;;25.00;87.70;;;;;;5153871;27;20043;-72
2022/08/10 09:33:19;;;;;;;7.60;2.50;;;24.90;83.30;;;;;;5153745;27;20047;-72
2022/08/10 09:36:06;;;;;;;6.27;2.63;;;24.80;83.30;;;;;;5154894;27;20049;-72
2022/08/10 09:38:57;;;;;;;5.83;2.43;;;24.80;84.20;;;;;;5139627;27;20043;-72
2022/08/10 09:41:45;;;;;;;6.93;2.43;;;24.70;86.00;;;;;;5157462;27;20054;-72
2022/08/10 09:44:45;;;;;;;5.17;2.30;;;24.90;86.70;;;;;;5157485;27;20098;-72
2022/08/10 09:47:47;;;;;;;6.27;2.47;;;25.00;84.10;;;;;;5157421;27;20089;-72
2022/08/10 09:50:27;;;;;;;5.17;2.70;;;24.90;86.00;;;;;;5157332;27;20454;-72
2022/08/10 09:53:03;;;;;;;7.17;2.40;;;24.90;85.50;;;;;;5157711;27;20054;-72
2022/08/10 09:55:41;;;;;;;6.50;2.57;;;24.90;84.00;;;;;;5156814;27;20541;-72
2022/08/10 09:58:40;;;;;;;6.47;2.00;;;24.80;85.80;;;;;;5157376;27;20050;-72
2022/08/10 10:01:21;;;;;;;5.23;2.17;;;24.90;85.80;;;;;;5139161;27;20043;-70
2022/08/10 10:04:10;;;;;;;4.43;2.17;;;25.00;83.70;;;;;;5157441;27;20057;-71
2022/08/10 10:06:42;;;;;;;8.07;3.03;;;25.00;82.30;;;;;;5156895;27;20482;-71
2022/08/10 10:09:19;;;;;;;4.97;2.63;;;24.90;83.10;;;;;;5138966;27;20046;-76
2022/08/10 10:12:19;;;;;;;5.27;2.20;;;24.80;84.60;;;;;;5156966;27;20078;-74
2022/08/10 10:15:19;;;;;;;7.50;2.80;;;24.90;85.70;;;;;;5157308;27;20119;-73
2022/08/10 10:18:03;;;;;;;4.40;1.97;;;25.10;85.40;;;;;;5157137;27;20059;-75
2022/08/10 10:20:37;;;;;;;6.70;2.55;;;25.10;85.20;;;;;;5156646;27;20512;-76
2022/08/10 10:23:45;;;;;;;5.50;2.47;;;25.20;83.20;;;;;;5121688;27;20043;-72
2022/08/10 10:26:27;;;;;;;9.27;2.47;;;25.20;82.80;;;;;;5138262;27;20042;-73
2022/08/10 10:29:44;;;;;;;4.67;2.20;;;25.20;78.80;;;;;;5157102;27;20125;-73
2022/08/10 10:32:47;;;;;;;6.87;1.90;;;25.30;78.50;;;;;;5099405;27;20133;-71
2022/08/10 10:35:33;;;;;;;5.70;2.00;;;25.20;77.10;;;;;;5156320;27;20199;-77
2022/08/10 10:38:01;;;;;;;4.80;1.93;;;25.10;76.60;;;;;;5156764;27;20047;-71
2022/08/10 10:40:38;;;;;;;4.60;2.30;;;25.20;76.60;;;;;;5155962;27;20498;-70
2022/08/10 10:43:29;;;;;;;3.87;1.70;;;25.20;77.70;;;;;;5156530;27;20469;-70
2022/08/10 10:46:10;;;;;;;5.33;1.90;;;25.30;75.80;;;;;;5156567;27;20425;-71
2022/08/10 10:48:41;;;;;;;3.83;1.70;;;25.30;74.20;;;;;;5155684;27;20474;-71
2022/08/10 10:51:25;;;;;;;4.33;1.83;;;25.30;74.20;;;;;;5156274;27;20054;-71
2022/08/10 10:54:11;;;;;;;6.77;1.90;;;25.40;73.50;;;;;;5138277;27;20453;-71
2022/08/10 10:56:59;;;;;;;4.20;2.30;;;25.40;74.60;;;;;;5137680;27;20482;-71
2022/08/10 10:59:46;;;;;;;4.57;1.90;;;25.40;73.60;;;;;;5155838;27;20046;-72
2022/08/10 11:03:02;;;;;;;5.63;2.00;;;25.50;72.40;;;;;;5156089;27;20054;-71
2022/08/10 11:05:44;;;;;;;5.97;2.40;;;25.40;73.20;;;;;;5111933;27;20043;-73
2022/08/10 11:08:22;;;;;;;6.73;2.00;;;25.40;73.40;;;;;;5156082;27;20395;-72
2022/08/10 11:10:54;;;;;;;6.40;2.50;;;25.40;71.60;;;;;;5156263;27;20382;-71
2022/08/10 11:13:37;;;;;;;3.40;1.70;;;25.50;69.80;;;;;;5155545;27;20082;-76
2022/08/10 11:16:09;;;;;;;7.93;1.90;;;25.40;70.70;;;;;;5155924;27;20046;-75
2022/08/10 11:18:56;;;;;;;7.43;2.10;;;25.50;70.20;;;;;;5155557;27;20440;-76
2022/08/10 11:21:26;;;;;;;5.30;1.60;;;25.60;69.30;;;;;;5155161;27;20058;-76
2022/08/10 11:24:13;;;;;;;4.97;1.50;;;25.60;67.00;;;;;;5155965;27;20074;-79
2022/08/10 11:26:54;;;;;;;4.13;1.50;;;25.40;67.10;;;;;;5155394;27;20043;-72
2022/08/10 11:29:38;;;;;;;5.40;1.63;;;25.40;67.30;;;;;;5137113;27;20039;-75
2022/08/10 11:32:21;;;;;;;4.47;1.70;;;25.50;66.80;;;;;;5155804;27;20130;-73
2022/08/10 11:34:56;;;;;;;5.07;1.50;;;25.60;64.70;;;;;;5155810;27;20764;-73
2022/08/10 11:37:34;;;;;;;4.00;2.13;;;25.60;65.70;;;;;;5155254;27;20076;-73
2022/08/10 11:40:37;;;;;;;5.90;1.80;;;25.60;66.50;;;;;;5155277;27;20386;-73
2022/08/10 11:43:25;;;;;;;6.40;1.90;;;25.60;65.60;;;;;;5123873;27;20067;-71
2022/08/10 11:46:13;;;;;;;5.93;1.60;;;25.50;65.80;;;;;;5155232;27;20053;-73
2022/08/10 11:48:59;;;;;;;2.57;1.80;;;25.50;66.70;;;;;;5154677;27;20049;-73
2022/08/10 11:51:49;;;;;;;5.23;1.73;;;25.60;65.00;;;;;;5154765;27;20038;-73
2022/08/10 11:54:18;;;;;;;3.57;1.40;;;25.60;62.70;;;;;;5135565;27;20043;-73
2022/08/10 11:56:51;;;;;;;3.77;1.77;;;25.70;61.20;;;;;;5154855;27;20106;-72
2022/08/10 12:02:06;;;;;;;5.83;1.87;;;25.60;61.20;;;;;;5154756;27;20501;-71
2022/08/10 12:04:34;;;;;;;5.73;1.90;;;25.60;62.50;;;;;;5154559;27;20046;-72
2022/08/10 12:07:03;;;;;;;5.53;1.73;;;25.70;63.80;;;;;;5154843;27;20038;-81
2022/08/10 12:09:30;;;;;;;6.50;2.00;;;25.70;63.80;;;;;;5154587;27;20054;-76
2022/08/10 12:11:58;;;;;;;5.33;1.87;;;25.80;64.30;;;;;;5155013;27;20125;-77
2022/08/10 12:14:53;;;;;;;4.60;1.60;;;25.90;63.70;;;;;;5137725;27;20045;-79
2022/08/10 12:17:43;;;;;;;4.68;1.85;;;25.90;64.00;;;;;;5154722;27;20065;-76
2022/08/10 12:20:23;;;;;;;2.87;1.70;;;25.90;62.30;;;;;;5154502;27;20122;-78
2022/08/10 12:22:59;;;;;;;3.60;1.70;;;25.90;63.00;;;;;;5154495;27;20096;-77
2022/08/10 12:25:35;;;;;;;5.67;2.07;;;25.90;63.10;;;;;;5154746;27;20031;-72
2022/08/10 12:28:48;;;;;;;6.47;1.77;;;25.90;62.60;;;;;;5154878;27;20402;-69
2022/08/10 12:31:16;;;;;;;4.03;1.43;;;25.90;62.50;;;;;;5075759;27;20111;-69
2022/08/10 12:34:11;;;;;;;4.03;1.80;;;25.90;62.20;;;;;;5150876;27;20123;-69
2022/08/10 12:36:41;;;;;;;3.70;1.50;;;26.00;60.90;;;;;;5131481;27;20092;-69
2022/08/10 12:39:20;;;;;;;4.33;1.80;;;25.90;59.70;;;;;;5154450;27;20054;-70
2022/08/10 12:41:52;;;;;;;3.03;1.60;;;26.00;58.90;;;;;;5154124;27;20089;-69
2022/08/10 12:44:31;;;;;;;3.77;1.73;;;26.00;58.90;;;;;;5154237;27;20035;-70
2022/08/10 12:47:08;;;;;;;3.30;1.83;;;26.00;57.60;;;;;;5154085;27;20042;-69
2022/08/10 12:49:52;;;;;;;8.77;1.50;;;26.00;58.30;;;;;;5135360;27;20147;-70
2022/08/10 12:52:23;;;;;;;2.50;1.50;;;26.00;57.90;;;;;;5154208;27;20047;-69
2022/08/10 12:54:51;;;;;;;3.17;1.70;;;26.00;57.30;;;;;;5153937;27;20035;-69
2022/08/10 12:57:22;;;;;;;5.10;1.40;;;26.00;57.50;;;;;;5153917;27;20082;-69
2022/08/10 12:59:51;;;;;;;4.03;1.60;;;26.00;57.70;;;;;;5135546;27;20051;-69
2022/08/10 13:02:38;;;;;;;3.60;1.50;;;26.00;56.80;;;;;;5154260;27;20124;-70
2022/08/10 13:05:09;;;;;;;3.77;1.73;;;26.10;55.70;;;;;;5153569;27;20047;-69
2022/08/10 13:07:42;;;;;;;3.57;1.90;;;26.10;56.70;;;;;;5153524;27;20046;-70
2022/08/10 13:10:13;;;;;;;4.63;1.50;;;26.10;57.00;;;;;;5155257;27;20058;-69
2022/08/10 13:12:42;;;;;;;4.00;1.50;;;26.10;57.20;;;;;;5157476;27;20129;-70
2022/08/10 13:15:18;;;;;;;3.00;1.50;;;26.20;56.30;;;;;;5157536;27;20470;-70
2022/08/10 13:17:48;;;;;;;4.47;1.70;;;26.20;56.20;;;;;;5157588;27;20043;-71
2022/08/10 13:20:19;;;;;;;3.53;1.63;;;26.20;55.40;;;;;;5157578;27;20051;-71
2022/08/10 13:22:48;;;;;;;6.60;1.73;;;26.20;55.30;;;;;;5157753;27;20147;-71